Thursday, November 23, 2017, 4:33 AM EST
Back to Local

KCEF, Chicopee Falls / Westover Air Force Base

Location: Chicopee, MA, United States Lat: 42.2
Local Time: 4:33 AM EST ( 9:33 GMT) Lon: -72.533
Time Zone: US/Eastern Elev: 246 ft

Show me the last for .
Show Decoded

2017-11-23 03:56 METAR KCEF 230856Z AUTO 00000KT 10SM CLR M03/M07 A3001 RMK AO2 SLP171 T10351075
                 50004 =
2017-11-23 02:56 METAR KCEF 230756Z AUTO 32005KT 10SM CLR M03/M07 A3001 RMK AO2 SLP171 T10271074
                 =
2017-11-23 01:56 METAR KCEF 230656Z AUTO 32003KT 10SM CLR 00/M07 A3001 RMK AO2 SLP170 T10051075 =
2017-11-23 00:56 METAR KCEF 230556Z AUTO 32008KT 10SM CLR 00/M07 A3000 RMK AO2 SLP167 T00011072
                 10043 20000 52016 =
2017-11-22 23:56 METAR KCEF 230456Z AUTO 33011G19KT 10SM CLR 02/M06 A2999 RMK AO2 SLP163
                 T00181065 400740017 =
2017-11-22 22:56 METAR KCEF 230356Z AUTO 32014G21KT 10SM OVC038 03/M05 A2997 RMK AO2 SLP156
                 T00321052 =
2017-11-22 21:56 METAR KCEF 230256Z 32010G19KT 10SM BKN039 04/M05 A2995 RMK AO2A PK WND 34030/29
                 SLP150 T00371048 52009 =
2017-11-22 20:56 METAR KCEF 230156Z 34011G26KT 10SM BKN040 04/M04 A2994 RMK AO2A PK WND 34029/29
                 SLP146 T00421043 =
2017-11-22 19:56 METAR KCEF 230056Z 33016G25KT 10SM BKN044 04/M04 A2993 RMK AO2A PK WND 35029/53
                 SLP143 T00431042 =
2017-11-22 18:56 METAR KCEF 222356Z 31011KT 10SM BKN040 04/M02 A2992 RMK AO2A SLP140 60004
                 T00421024 10074 20037 52021 =
2017-11-22 17:56 METAR KCEF 222256Z 31010KT 10SM SCT029 OVC036 05/00 A2991 RMK AO2A BKN V OVC
                 SLP136 T00490003 =
2017-11-22 16:56 METAR KCEF 222156Z 34011G18KT 10SM FEW020 SCT032 BKN070 05/00 A2988 RMK AO2A
                 SLP126 T00520002 =
2017-11-22 15:56 METAR KCEF 222056Z 32019G23KT 10SM FEW020 SCT035 BKN065 06/02 A2986 RMK AO2A
                 SLP119 60004 T00560015 52009 =
2017-11-22 15:41 METAR KCEF 222041Z 33013KT 10SM FEW020 SCT030 BKN060 06/03 A2987 RMK AO2A SLP123
                 =
2017-11-22 14:56 METAR KCEF 221956Z 32007KT 10SM FEW004 BKN025 OVC050 06/05 A2985 RMK AO2A SLP116
                 P0002 T00630049 =
2017-11-22 14:35 METAR KCEF 221935Z 32007KT 10SM FEW005 BKN020 OVC038 06/05 A2985 RMK AO2A SLP116
                 =
2017-11-22 14:11 METAR KCEF 221911Z 29007KT 5SM -RA FEW004 SCT017 OVC023 06/05 A2985 RMK AO2A
                 SLP116 =
2017-11-22 13:56 METAR KCEF 221856Z 30005KT 5SM -RA FEW004 OVC018 07/06 A2984 RMK AO2A SLP112
                 P0002 T00660055 =
2017-11-22 13:44 METAR KCEF 221844Z 30005KT 9SM -RA FEW004 BKN020 OVC035 07/06 A2984 RMK AO2A
                 SLP112 =
2017-11-22 12:56 METAR KCEF 221756Z 31003KT 5SM -RA BR FEW004 SCT024 OVC042 07/06 A2983 RMK AO2A
                 SLP109 60023 T00730064 10073 20035 57015 =
2017-11-22 11:56 METAR KCEF 221656Z 05003KT 4SM -RA BR SCT007 SCT014 OVC044 07/06 A2984 RMK AO2A
                 SLP112 P0003 T00700061 =
2017-11-22 11:46 METAR KCEF 221646Z 03004KT 3SM -RA BR SCT008 SCT014 OVC044 07/06 A2985 RMK AO2A
                 SLP116 =
2017-11-22 10:56 METAR KCEF 221556Z 00000KT 5SM -RA BR FEW001 BKN018 OVC027 07/06 A2987 RMK AO2A
                 SLP122 P0003 T00670056 =
2017-11-22 09:56 METAR KCEF 221456Z 02004KT 6SM -RA BR SCT007 OVC014 06/05 A2988 RMK AO2A SLP126
                 P0004 60005 T00610049 55008 =
2017-11-22 09:31 METAR KCEF 221431Z 00000KT 5SM -RA BR SCT008 BKN013 OVC050 06/05 A2988 RMK AO2A
                 SLP126 =
2017-11-22 08:56 METAR KCEF 221356Z 00000KT 7SM -RA FEW002 SCT015 OVC055 06/05 A2986 RMK AO2A
                 SLP119 P0000 T00560047 =
2017-11-22 08:21 METAR KCEF 221321Z 00000KT 9SM -RA FEW001 BKN065 OVC080 05/04 A2988 RMK AO2A
                 SLP126 =
2017-11-22 08:05 METAR KCEF 221305Z 30005KT 10SM SCT032 BKN060 OVC080 05/04 A2989 RMK AO2A SLP129
                 =
2017-11-22 07:56 METAR KCEF 221256Z 30006KT 10SM -RA SCT035 BKN060 OVC080 06/04 A2990 RMK AO2A
                 SLP132 P0001 T00550043 =
2017-11-22 06:56 METAR KCEF 221156Z 06003KT 10SM -RA BKN070 OVC110 03/02 A2991 RMK AO2A SLP136
                 P0000 60000 T00340024 10053 20017 57017 =
2017-11-22 06:48 METAR KCEF 221148Z 06003KT 10SM -RA BKN070 OVC150 03/02 A2991 RMK AO2A SLP136 =
2017-11-22 05:56 METAR KCEF 221056Z AUTO 04003KT 10SM BKN080 BKN150 03/02 A2992 RMK AO2 SLP139
                 T00270017 =
2017-11-22 04:56 METAR KCEF 220956Z AUTO 00000KT 10SM CLR 02/01 A2994 RMK AO2 SLP146 T00230013 =

Support USWX by starting your Amazon purchase here.